Time;durP1;ratioP1;P1;durP2;ratioP2;P2;SDS_P1;SDS_P2;PMS_P1;PMS_P2;Temp;Humidity;BMP_temperature;BMP_pressure;BME280_temperature;BME280_humidity;BME280_pressure;Samples;Min_cycle;Max_cycle;Signal;HPM_P1;HPM_P2
2022/09/28 00:00:06;;;;;;;24.65;10.90;;;6.10;99.90;;;;;;5054087;28;20080;-32
2022/09/28 00:02:34;;;;;;;27.80;10.93;;;6.10;99.90;;;;;;5054067;28;20082;-32
2022/09/28 00:05:00;;;;;;;20.20;10.15;;;5.70;99.90;;;;;;5054842;28;20044;-32
2022/09/28 00:07:26;;;;;;;22.75;11.50;;;5.90;99.90;;;;;;5054014;28;20434;-33
2022/09/28 00:09:52;;;;;;;16.88;9.98;;;5.90;99.90;;;;;;5054213;28;20053;-33
2022/09/28 00:12:20;;;;;;;20.42;10.52;;;6.00;99.90;;;;;;5054433;28;20045;-32
2022/09/28 00:14:46;;;;;;;18.42;10.77;;;6.00;99.90;;;;;;5053868;28;20052;-32
2022/09/28 00:17:12;;;;;;;19.73;10.70;;;6.50;99.90;;;;;;5052868;28;20048;-33
2022/09/28 00:19:39;;;;;;;26.75;12.65;;;6.30;99.90;;;;;;5053997;28;20378;-32
2022/09/28 00:22:06;;;;;;;28.08;12.82;;;5.90;99.90;;;;;;5052811;28;20087;-33
2022/09/28 00:24:31;;;;;;;24.52;11.80;;;6.00;99.90;;;;;;5054546;28;20053;-33
2022/09/28 00:27:00;;;;;;;26.30;13.13;;;6.40;99.90;;;;;;5053734;28;20459;-32
2022/09/28 00:29:31;;;;;;;23.30;12.77;;;6.50;99.90;;;;;;5054218;28;20079;-32
2022/09/28 00:32:03;;;;;;;32.92;14.65;;;6.50;99.90;;;;;;5053307;28;20053;-33
2022/09/28 00:34:36;;;;;;;29.80;13.88;;;6.10;99.90;;;;;;5052872;28;20085;-33
2022/09/28 00:37:03;;;;;;;29.25;14.48;;;6.60;99.90;;;;;;5053384;28;20095;-32
2022/09/28 00:39:34;;;;;;;29.90;14.40;;;6.50;99.90;;;;;;5053546;28;20044;-32
2022/09/28 00:42:01;;;;;;;23.73;13.35;;;6.60;99.90;;;;;;5052495;28;20049;-33
2022/09/28 00:44:29;;;;;;;28.55;14.40;;;6.60;99.90;;;;;;5052867;28;20045;-33
2022/09/28 00:47:08;;;;;;;26.75;13.90;;;6.40;99.90;;;;;;5053534;28;20106;-33
2022/09/28 00:49:42;;;;;;;24.02;13.23;;;6.30;99.90;;;;;;5036526;28;20051;-33
2022/09/28 00:52:13;;;;;;;26.60;14.30;;;6.70;99.90;;;;;;5052483;28;20044;-33
2022/09/28 00:54:40;;;;;;;32.30;14.57;;;6.70;99.90;;;;;;5053487;28;20052;-33
2022/09/28 00:57:06;;;;;;;29.58;14.30;;;6.50;99.90;;;;;;5052483;28;20041;-33
2022/09/28 00:59:32;;;;;;;25.95;13.32;;;6.60;99.90;;;;;;5052172;28;20098;-33
2022/09/28 01:01:58;;;;;;;24.52;13.73;;;6.50;99.90;;;;;;5053402;28;20098;-33
2022/09/28 01:04:23;;;;;;;28.65;15.75;;;6.80;99.90;;;;;;5053644;28;20512;-33
2022/09/28 01:06:51;;;;;;;34.03;15.10;;;6.90;99.90;;;;;;5053330;28;20083;-32
2022/09/28 01:09:17;;;;;;;28.42;14.82;;;6.70;99.90;;;;;;5053262;28;20045;-33
2022/09/28 01:11:43;;;;;;;27.30;14.25;;;6.90;99.90;;;;;;5053829;28;20045;-33
2022/09/28 01:14:11;;;;;;;25.35;15.38;;;6.70;99.90;;;;;;5053826;28;20040;-33
2022/09/28 01:17:09;;;;;;;32.80;15.45;;;6.50;99.90;;;;;;5053241;28;20041;-32
2022/09/28 01:19:59;;;;;;;34.88;15.18;;;6.50;99.90;;;;;;5051876;28;20106;-34
2022/09/28 01:22:44;;;;;;;28.02;14.57;;;6.50;99.90;;;;;;5053167;28;20041;-33
2022/09/28 01:25:15;;;;;;;25.67;13.32;;;6.80;99.90;;;;;;5053158;28;20056;-33
2022/09/28 01:27:48;;;;;;;29.05;13.90;;;6.80;99.90;;;;;;5053187;28;20045;-33
2022/09/28 01:30:19;;;;;;;32.78;15.63;;;6.40;99.90;;;;;;5052883;28;20503;-33
2022/09/28 01:33:02;;;;;;;29.55;14.45;;;6.90;99.90;;;;;;5053468;28;20076;-33
2022/09/28 01:35:34;;;;;;;31.38;15.57;;;6.90;99.90;;;;;;5053053;28;20063;-34
2022/09/28 01:38:06;;;;;;;35.03;16.42;;;6.40;99.90;;;;;;5052992;28;20099;-33
2022/09/28 01:40:34;;;;;;;32.13;15.30;;;6.70;99.90;;;;;;5036338;28;20437;-35
2022/09/28 01:43:10;;;;;;;36.78;15.07;;;6.50;99.90;;;;;;5052689;28;20503;-33
2022/09/28 01:45:43;;;;;;;34.67;16.33;;;6.80;99.90;;;;;;5053035;28;20045;-33
2022/09/28 01:48:13;;;;;;;38.00;16.75;;;6.80;99.90;;;;;;5054660;28;20049;-33
2022/09/28 01:50:42;;;;;;;30.88;15.35;;;6.40;99.90;;;;;;5056936;28;20060;-32
2022/09/28 01:53:31;;;;;;;33.30;16.63;;;6.60;99.90;;;;;;5056478;28;20124;-33
2022/09/28 01:56:03;;;;;;;30.45;15.73;;;6.50;99.90;;;;;;5057089;28;20120;-32
2022/09/28 01:59:11;;;;;;;43.47;17.80;;;6.40;99.90;;;;;;5055051;28;20045;-33
2022/09/28 02:01:41;;;;;;;46.53;18.58;;;6.30;99.90;;;;;;5054357;28;20087;-33
2022/09/28 02:04:25;;;;;;;48.42;18.38;;;6.40;99.90;;;;;;5056176;28;20064;-33
2022/09/28 02:07:00;;;;;;;55.10;21.80;;;6.30;99.90;;;;;;5056912;28;20048;-33
2022/09/28 02:09:32;;;;;;;46.53;18.60;;;6.60;99.90;;;;;;5056854;28;20068;-33
2022/09/28 02:12:03;;;;;;;47.03;19.17;;;6.30;99.90;;;;;;5056233;28;20044;-33
2022/09/28 02:14:29;;;;;;;56.60;20.88;;;6.60;99.90;;;;;;5056155;28;20487;-33
2022/09/28 02:16:56;;;;;;;64.35;22.88;;;6.60;99.90;;;;;;5056370;28;20124;-34
2022/09/28 02:19:26;;;;;;;47.03;21.00;;;6.30;99.90;;;;;;5055926;28;20467;-34
2022/09/28 02:22:13;;;;;;;52.30;20.60;;;6.40;99.90;;;;;;5054994;28;20131;-33
2022/09/28 02:24:41;;;;;;;42.22;19.65;;;6.60;99.90;;;;;;5055318;28;20128;-33
2022/09/28 02:27:16;;;;;;;51.17;19.83;;;6.70;99.90;;;;;;5054715;28;20060;-33
2022/09/28 02:29:42;;;;;;;43.03;19.85;;;6.40;99.90;;;;;;5055891;28;20048;-33
2022/09/28 02:32:09;;;;;;;51.42;21.27;;;6.70;99.90;;;;;;5055832;28;20044;-33
2022/09/28 02:34:35;;;;;;;66.25;21.67;;;6.70;99.90;;;;;;5037775;28;20064;-33
2022/09/28 02:37:01;;;;;;;53.25;18.27;;;6.70;99.90;;;;;;5054527;28;20044;-33
2022/09/28 02:39:27;;;;;;;61.08;19.70;;;6.50;99.90;;;;;;5055582;28;20116;-33
2022/09/28 02:41:58;;;;;;;62.58;19.33;;;6.20;99.90;;;;;;5055379;28;20061;-33
2022/09/28 02:44:56;;;;;;;49.75;18.52;;;6.30;99.90;;;;;;5056401;28;20055;-33
2022/09/28 02:47:33;;;;;;;87.75;18.92;;;6.50;99.90;;;;;;5054361;28;20049;-33
2022/09/28 02:50:41;;;;;;;73.68;19.55;;;6.40;99.90;;;;;;5054843;28;20149;-33
2022/09/28 02:53:30;;;;;;;116.75;18.35;;;6.10;99.90;;;;;;5055324;28;20060;-33
2022/09/28 02:56:23;;;;;;;59.60;16.92;;;6.30;99.90;;;;;;5055655;28;20045;-33
2022/09/28 02:58:58;;;;;;;61.22;16.35;;;6.10;99.90;;;;;;5055394;28;20395;-33
2022/09/28 03:01:42;;;;;;;115.45;21.63;;;6.00;99.90;;;;;;5055470;28;20483;-33
2022/09/28 03:04:29;;;;;;;72.25;18.02;;;6.30;99.90;;;;;;5056057;28;20049;-33
2022/09/28 03:07:03;;;;;;;43.83;16.48;;;5.90;99.90;;;;;;5055458;28;20052;-32
2022/09/28 03:09:37;;;;;;;40.33;16.35;;;6.00;99.90;;;;;;5055028;28;20084;-33
2022/09/28 03:12:09;;;;;;;67.22;19.63;;;6.00;99.90;;;;;;5055316;28;20483;-33
2022/09/28 03:14:35;;;;;;;91.00;21.38;;;5.70;99.90;;;;;;5054993;28;20053;-33
2022/09/28 03:17:01;;;;;;;197.80;25.23;;;5.90;99.90;;;;;;5054960;28;20068;-34
2022/09/28 03:19:30;;;;;;;232.20;28.38;;;6.00;99.90;;;;;;5055424;28;20124;-33
2022/09/28 03:21:57;;;;;;;136.93;25.08;;;6.00;99.90;;;;;;5054841;28;20044;-33
2022/09/28 03:24:23;;;;;;;172.02;24.33;;;5.70;99.90;;;;;;5055049;28;20077;-33
2022/09/28 03:26:49;;;;;;;208.90;24.92;;;5.90;99.90;;;;;;5055307;28;20556;-33
2022/09/28 03:29:14;;;;;;;266.10;27.13;;;5.90;99.90;;;;;;5054582;28;20127;-34
2022/09/28 03:31:40;;;;;;;246.25;26.65;;;5.90;99.90;;;;;;5054648;28;20053;-33
2022/09/28 03:34:06;;;;;;;206.80;25.65;;;5.70;99.90;;;;;;5053046;28;20087;-33
2022/09/28 03:36:31;;;;;;;219.20;27.83;;;5.90;99.90;;;;;;5053610;28;20047;-33
2022/09/28 03:38:58;;;;;;;150.75;25.92;;;5.70;99.90;;;;;;5054964;28;20051;-33
2022/09/28 03:41:26;;;;;;;131.82;24.00;;;5.90;99.90;;;;;;5054821;28;20203;-32
2022/09/28 03:43:52;;;;;;;125.55;24.40;;;6.00;99.90;;;;;;5054412;28;20045;-33
2022/09/28 03:46:18;;;;;;;212.05;27.70;;;5.80;99.90;;;;;;5053988;28;20426;-33
2022/09/28 03:48:44;;;;;;;101.22;22.83;;;5.80;99.90;;;;;;5054615;28;20048;-33
2022/09/28 03:51:11;;;;;;;122.00;24.52;;;5.80;99.90;;;;;;5054200;28;20053;-33
2022/09/28 03:53:37;;;;;;;124.55;26.80;;;6.20;99.90;;;;;;5054541;28;20132;-32
2022/09/28 03:56:10;;;;;;;101.38;26.00;;;6.10;99.90;;;;;;5054173;28;20053;-33
2022/09/28 03:58:36;;;;;;;;;;;6.00;99.90;;;;;;5054595;28;20049;-33
2022/09/28 04:01:07;;;;;;;86.70;24.83;;;5.90;99.90;;;;;;5054136;28;19927;-33
2022/09/28 04:03:33;;;;;;;89.25;26.50;;;6.10;99.90;;;;;;5054694;28;20098;-33
2022/09/28 04:06:00;;;;;;;118.18;25.48;;;6.00;99.90;;;;;;5054334;28;20041;-33
2022/09/28 04:08:25;;;;;;;103.95;22.95;;;6.10;99.90;;;;;;5054527;28;20076;-35
2022/09/28 04:10:54;;;;;;;153.77;25.23;;;6.00;99.90;;;;;;5053090;28;20053;-34
2022/09/28 04:13:20;;;;;;;160.55;24.33;;;6.20;99.90;;;;;;5053911;28;20089;-33
2022/09/28 04:15:52;;;;;;;251.48;29.98;;;6.10;99.90;;;;;;5053886;28;20083;-33
2022/09/28 04:18:18;;;;;;;306.25;31.20;;;5.80;99.90;;;;;;5054386;28;20049;-33
2022/09/28 04:20:46;;;;;;;153.10;25.65;;;5.80;99.90;;;;;;5053937;28;20045;-33
2022/09/28 04:23:13;;;;;;;157.90;27.95;;;5.90;99.90;;;;;;5053806;28;20049;-33
2022/09/28 04:25:38;;;;;;;77.65;22.85;;;6.10;99.90;;;;;;5053776;28;20053;-33
2022/09/28 04:30:48;;;;;;;85.82;25.08;;;6.00;99.90;;;;;;5054616;28;20110;-33
2022/09/28 04:33:14;;;;;;;126.20;28.95;;;6.30;99.90;;;;;;5053436;28;20450;-34
2022/09/28 04:35:40;;;;;;;82.47;25.48;;;6.40;99.90;;;;;;5053635;28;20052;-33
2022/09/28 04:38:05;;;;;;;79.60;26.25;;;6.40;99.90;;;;;;5054095;28;20455;-34
2022/09/28 04:40:31;;;;;;;91.38;28.02;;;6.20;99.90;;;;;;5053841;28;20391;-36
2022/09/28 04:42:57;;;;;;;81.60;26.77;;;6.30;99.90;;;;;;5053567;28;20044;-33
2022/09/28 04:45:25;;;;;;;79.00;26.50;;;6.00;99.90;;;;;;5054098;28;20121;-33
2022/09/28 04:47:51;;;;;;;90.30;27.50;;;6.00;99.90;;;;;;5054318;28;20067;-34
2022/09/28 04:50:17;;;;;;;92.18;26.48;;;6.10;99.90;;;;;;5053749;28;20182;-34
2022/09/28 04:52:43;;;;;;;80.28;26.48;;;6.10;99.90;;;;;;5053446;28;20510;-34
2022/09/28 04:55:12;;;;;;;81.75;26.35;;;5.80;99.90;;;;;;5053463;28;20067;-33
2022/09/28 04:57:38;;;;;;;77.97;24.17;;;6.00;99.90;;;;;;5053650;28;20041;-33
2022/09/28 05:00:05;;;;;;;66.22;24.70;;;5.70;99.90;;;;;;5053394;28;20071;-34
2022/09/28 05:02:31;;;;;;;68.85;24.38;;;6.00;99.90;;;;;;5053348;28;20044;-34
2022/09/28 05:04:57;;;;;;;81.18;25.77;;;5.90;99.90;;;;;;5052213;28;20467;-34
2022/09/28 05:07:25;;;;;;;81.57;25.60;;;5.70;99.90;;;;;;5053588;28;20483;-33
2022/09/28 05:09:50;;;;;;;74.85;25.85;;;5.60;99.90;;;;;;5053559;28;20106;-33
2022/09/28 05:12:16;;;;;;;79.88;26.30;;;5.50;99.90;;;;;;5053331;28;20475;-33
2022/09/28 05:14:42;;;;;;;75.57;25.05;;;5.50;99.90;;;;;;5053327;28;20056;-33
2022/09/28 05:17:09;;;;;;;69.72;24.10;;;5.40;99.90;;;;;;5053237;28;20041;-33
2022/09/28 05:19:35;;;;;;;82.18;25.75;;;5.40;99.90;;;;;;5053161;28;20041;-33
2022/09/28 05:22:03;;;;;;;109.30;28.02;;;5.30;99.90;;;;;;5053186;28;20048;-33
2022/09/28 05:24:29;;;;;;;88.60;26.73;;;5.60;99.90;;;;;;5055922;28;20127;-33
2022/09/28 05:26:55;;;;;;;104.07;26.60;;;5.60;99.90;;;;;;5057023;28;20041;-33
2022/09/28 05:29:21;;;;;;;114.60;28.70;;;5.50;99.90;;;;;;5057004;28;20048;-33
2022/09/28 05:31:47;;;;;;;158.63;32.28;;;5.60;99.90;;;;;;5057458;28;20060;-33
2022/09/28 05:34:13;;;;;;;400.40;44.95;;;5.30;99.90;;;;;;5057059;28;20471;-34
2022/09/28 05:36:41;;;;;;;264.33;35.58;;;5.40;99.90;;;;;;5055689;28;20060;-33
2022/09/28 05:39:08;;;;;;;181.23;29.08;;;5.30;99.90;;;;;;5056119;28;20037;-34
2022/09/28 05:41:33;;;;;;;116.55;27.80;;;5.70;99.90;;;;;;5057292;28;20045;-33
2022/09/28 05:43:59;;;;;;;102.28;27.65;;;5.60;99.90;;;;;;5056743;28;20037;-33
2022/09/28 05:46:25;;;;;;;68.97;25.48;;;5.60;99.90;;;;;;5057232;28;20106;-33
2022/09/28 05:48:51;;;;;;;122.25;32.20;;;5.60;99.90;;;;;;5056588;28;20037;-34
2022/09/28 05:51:18;;;;;;;118.78;30.75;;;5.40;99.90;;;;;;5056535;28;20045;-34
2022/09/28 05:53:43;;;;;;;246.10;34.47;;;5.60;99.90;;;;;;5056392;28;20045;-33
2022/09/28 05:56:09;;;;;;;441.45;43.33;;;5.40;99.90;;;;;;5056511;28;20191;-33
2022/09/28 05:58:35;;;;;;;196.15;33.00;;;5.40;99.90;;;;;;5056322;28;20041;-34
2022/09/28 06:01:00;;;;;;;260.95;36.38;;;5.30;99.90;;;;;;5038864;28;20049;-34
2022/09/28 06:03:26;;;;;;;295.80;35.15;;;5.40;99.90;;;;;;5055363;28;20132;-35
2022/09/28 06:05:52;;;;;;;343.77;37.10;;;5.40;99.90;;;;;;5057125;28;20091;-33
2022/09/28 06:08:18;;;;;;;475.60;42.03;;;5.60;99.90;;;;;;5056237;28;20260;-34
2022/09/28 06:10:44;;;;;;;433.90;42.22;;;5.40;99.90;;;;;;5056751;28;20492;-34
2022/09/28 06:13:10;;;;;;;508.95;42.75;;;5.40;99.90;;;;;;5056183;28;20055;-34
2022/09/28 06:15:37;;;;;;;358.55;35.70;;;5.30;99.90;;;;;;5056958;28;20060;-33
2022/09/28 06:18:10;;;;;;;447.00;37.67;;;5.20;99.90;;;;;;5055327;28;20056;-34
2022/09/28 06:20:38;;;;;;;519.25;38.15;;;5.50;99.90;;;;;;5054805;28;20455;-33
2022/09/28 06:23:04;;;;;;;427.05;35.08;;;5.30;99.90;;;;;;5054753;28;20098;-33
2022/09/28 06:25:29;;;;;;;441.58;36.03;;;5.50;99.90;;;;;;5056517;28;20053;-33
2022/09/28 06:27:58;;;;;;;441.60;35.60;;;5.50;99.90;;;;;;5055908;28;20055;-33
2022/09/28 06:30:26;;;;;;;452.33;37.83;;;5.40;99.90;;;;;;5055839;28;20040;-33
2022/09/28 06:32:54;;;;;;;426.33;34.00;;;5.60;99.90;;;;;;5055183;28;20057;-34
2022/09/28 06:35:20;;;;;;;342.60;32.17;;;5.50;99.90;;;;;;5054980;28;20085;-34
2022/09/28 06:37:46;;;;;;;314.38;34.47;;;5.50;99.90;;;;;;5055631;28;20045;-34
2022/09/28 06:40:12;;;;;;;210.73;28.50;;;5.50;99.90;;;;;;5054463;28;20403;-33
2022/09/28 06:42:38;;;;;;;283.85;31.52;;;5.50;99.90;;;;;;5055620;28;20052;-33
2022/09/28 06:45:05;;;;;;;328.33;33.58;;;5.80;99.90;;;;;;5054466;28;20045;-33
2022/09/28 06:47:32;;;;;;;228.75;27.27;;;5.70;99.90;;;;;;5054908;28;20110;-33
2022/09/28 06:49:58;;;;;;;376.23;42.67;;;5.70;99.90;;;;;;5055191;28;20487;-33
2022/09/28 06:52:24;;;;;;;294.80;39.95;;;5.80;99.90;;;;;;5055396;28;20059;-34
2022/09/28 06:54:50;;;;;;;104.75;26.42;;;5.90;99.90;;;;;;5056204;28;20128;-34
2022/09/28 06:57:16;;;;;;;149.27;33.58;;;5.90;99.90;;;;;;5054102;28;20056;-34
2022/09/28 06:59:42;;;;;;;105.75;30.90;;;6.00;99.90;;;;;;5055531;28;20111;-33
2022/09/28 07:02:13;;;;;;;110.90;29.52;;;6.10;99.90;;;;;;5055266;28;20483;-34
2022/09/28 07:04:42;;;;;;;67.05;25.70;;;6.10;99.90;;;;;;5055834;28;20091;-33
2022/09/28 07:07:10;;;;;;;65.45;25.90;;;6.20;99.90;;;;;;5054945;28;20045;-34
2022/09/28 07:09:36;;;;;;;55.38;24.80;;;6.40;99.90;;;;;;5053957;28;20045;-33
2022/09/28 07:12:03;;;;;;;52.03;23.80;;;6.40;99.90;;;;;;5055576;28;20041;-34
2022/09/28 07:14:32;;;;;;;58.60;24.65;;;6.50;99.90;;;;;;5053902;28;20092;-33
2022/09/28 07:16:58;;;;;;;62.58;25.50;;;6.60;99.90;;;;;;5055781;28;20056;-33
2022/09/28 07:19:24;;;;;;;49.70;24.17;;;6.70;99.90;;;;;;5054858;28;20399;-35
2022/09/28 07:21:52;;;;;;;48.55;24.40;;;7.00;99.90;;;;;;5053929;28;20110;-34
2022/09/28 07:24:18;;;;;;;57.03;26.30;;;7.10;99.90;;;;;;5053686;28;20049;-33
2022/09/28 07:26:44;;;;;;;41.20;22.77;;;7.20;99.90;;;;;;5053637;28;20057;-34
2022/09/28 07:29:11;;;;;;;36.50;20.80;;;7.30;99.90;;;;;;5055546;28;20048;-34
2022/09/28 07:31:38;;;;;;;40.40;22.52;;;7.40;99.90;;;;;;5054446;28;20052;-33
2022/09/28 07:34:03;;;;;;;39.55;23.10;;;7.60;99.90;;;;;;5054708;28;20061;-35
2022/09/28 07:36:34;;;;;;;33.20;21.33;;;7.70;99.90;;;;;;5054561;28;20052;-34
2022/09/28 07:39:01;;;;;;;30.48;19.73;;;7.90;99.90;;;;;;5053083;28;20081;-34
2022/09/28 07:41:34;;;;;;;31.58;20.25;;;8.00;99.90;;;;;;5053549;28;20048;-34
2022/09/28 07:44:04;;;;;;;29.02;17.67;;;8.20;99.90;;;;;;5054548;28;20084;-33
2022/09/28 07:46:34;;;;;;;30.77;19.67;;;8.30;99.90;;;;;;5052455;28;20045;-33
2022/09/28 07:49:04;;;;;;;28.80;17.83;;;8.50;99.90;;;;;;5052861;28;20052;-33
2022/09/28 07:51:30;;;;;;;24.15;17.08;;;8.60;99.90;;;;;;5054221;28;20047;-35
2022/09/28 07:53:56;;;;;;;22.95;15.25;;;8.70;99.90;;;;;;5054289;28;20052;-34
2022/09/28 07:56:22;;;;;;;22.50;12.80;;;8.90;99.90;;;;;;5055040;28;20056;-34
2022/09/28 07:58:48;;;;;;;16.63;10.70;;;8.90;99.90;;;;;;5054451;28;20080;-35
2022/09/28 08:01:15;;;;;;;14.95;10.25;;;9.00;99.90;;;;;;5054177;28;20475;-34
2022/09/28 08:03:46;;;;;;;14.75;11.15;;;9.10;99.90;;;;;;5053187;28;20061;-36
2022/09/28 08:06:13;;;;;;;13.32;9.43;;;9.20;99.90;;;;;;5054160;28;20103;-34
2022/09/28 08:08:43;;;;;;;19.45;9.57;;;9.30;99.90;;;;;;5054073;28;20053;-37
2022/09/28 08:11:15;;;;;;;11.55;8.45;;;9.40;99.90;;;;;;5053022;28;20037;-37
2022/09/28 08:13:41;;;;;;;13.85;8.93;;;9.40;99.90;;;;;;5053979;28;20102;-38
2022/09/28 08:16:07;;;;;;;10.10;7.70;;;9.50;99.90;;;;;;5053626;28;20053;-38
2022/09/28 08:18:34;;;;;;;10.57;6.45;;;9.60;99.90;;;;;;5053842;28;20075;-38
2022/09/28 08:23:46;;;;;;;7.32;6.05;;;9.60;99.90;;;;;;5052595;28;20110;-37
2022/09/28 08:26:12;;;;;;;12.45;7.15;;;9.80;99.90;;;;;;5054364;28;20044;-37
2022/09/28 08:28:38;;;;;;;7.55;6.18;;;9.90;99.90;;;;;;5054046;28;20072;-38
2022/09/28 08:31:06;;;;;;;7.03;5.15;;;10.00;99.90;;;;;;5053165;28;20053;-39
2022/09/28 08:33:32;;;;;;;5.28;4.78;;;10.10;99.90;;;;;;5053362;28;20061;-40
2022/09/28 08:35:59;;;;;;;9.13;5.85;;;10.20;99.90;;;;;;5052465;28;20132;-40
2022/09/28 08:38:27;;;;;;;8.70;4.80;;;10.40;99.90;;;;;;5053896;28;20068;-40
2022/09/28 08:41:05;;;;;;;8.45;4.63;;;10.30;99.90;;;;;;5053575;28;20479;-40
2022/09/28 08:43:51;;;;;;;7.47;5.28;;;10.40;99.90;;;;;;5053591;28;20048;-40
2022/09/28 08:46:20;;;;;;;8.50;3.90;;;10.50;99.90;;;;;;5053156;28;20056;-40
2022/09/28 08:49:10;;;;;;;7.72;4.20;;;10.60;99.90;;;;;;5053575;28;20049;-41
2022/09/28 08:51:59;;;;;;;4.45;3.22;;;10.70;99.90;;;;;;5053385;28;20045;-41
2022/09/28 08:54:38;;;;;;;5.85;3.70;;;10.80;99.90;;;;;;5053478;28;20063;-41
2022/09/28 08:57:25;;;;;;;5.90;3.25;;;10.80;99.90;;;;;;5055926;28;20049;-41
2022/09/28 08:59:54;;;;;;;6.10;2.30;;;11.00;99.90;;;;;;5056424;28;20049;-41
2022/09/28 09:02:26;;;;;;;6.70;2.30;;;11.10;99.90;;;;;;5056575;28;20093;-41
2022/09/28 09:04:52;;;;;;;5.03;2.50;;;;;;;;;;5058053;28;20052;-43
2022/09/28 09:07:32;;;;;;;5.47;2.10;;;11.50;99.90;;;;;;5056311;28;20049;-42
2022/09/28 09:10:19;;;;;;;3.05;1.92;;;;;;;;;;5058262;28;20052;-43
2022/09/28 09:12:57;;;;;;;4.55;2.30;;;14.00;99.90;;;;;;5057197;28;20494;-43
2022/09/28 09:15:46;;;;;;;3.03;1.88;;;;;;;;;;5056209;28;20056;-42
2022/09/28 09:18:30;;;;;;;4.18;1.92;;;14.70;99.90;;;;;;5057729;28;20059;-43
2022/09/28 09:20:57;;;;;;;5.03;1.50;;;14.40;99.90;;;;;;5057807;28;20087;-42
2022/09/28 09:23:33;;;;;;;2.60;1.02;;;14.20;99.90;;;;;;5057941;28;20056;-43
2022/09/28 09:26:20;;;;;;;4.30;1.05;;;14.70;99.90;;;;;;5056466;28;20060;-42
2022/09/28 09:28:53;;;;;;;3.80;0.90;;;14.90;99.90;;;;;;5057657;28;20088;-42
2022/09/28 09:31:22;;;;;;;6.28;1.33;;;;;;;;;;5057893;28;20395;-43
2022/09/28 09:33:52;;;;;;;3.38;0.95;;;;;;;;;;5056872;28;20136;-43
2022/09/28 09:36:36;;;;;;;2.05;0.75;;;;;;;;;;5057162;28;20047;-43
2022/09/28 09:39:02;;;;;;;2.15;0.68;;;;;;;;;;5056766;28;20048;-43
2022/09/28 09:41:42;;;;;;;3.35;0.60;;;;;;;;;;5056570;28;20044;-43
2022/09/28 09:44:28;;;;;;;3.33;0.60;;;;;;;;;;5057464;28;20064;-43
2022/09/28 09:47:08;;;;;;;2.85;0.52;;;;;;;;;;5045548;28;20059;-42
2022/09/28 09:49:40;;;;;;;3.50;0.50;;;;;;;;;;5055392;28;20450;-42
2022/09/28 09:52:10;;;;;;;2.13;0.40;;;;;;;;;;5055403;28;20190;-43
2022/09/28 09:54:50;;;;;;;1.52;0.32;;;;;;;;;;5056836;28;20045;-42
2022/09/28 09:57:24;;;;;;;0.57;0.30;;;;;;;;;;5056828;28;20045;-42
2022/09/28 09:59:50;;;;;;;2.50;0.68;;;;;;;;;;5056434;28;20047;-42
2022/09/28 10:02:24;;;;;;;0.90;0.40;;;;;;;;;;5056414;28;20045;-42
2022/09/28 10:04:53;;;;;;;1.90;0.50;;;;;;;;;;5056434;28;20060;-42
2022/09/28 10:07:24;;;;;;;2.28;0.40;;;;;;;;;;5056337;28;20060;-42
2022/09/28 10:09:52;;;;;;;1.05;0.38;;;;;;;;;;5055698;28;20045;-42
2022/09/28 10:12:20;;;;;;;2.70;0.40;;;;;;;;;;5056316;28;20056;-42
2022/09/28 10:14:46;;;;;;;3.25;0.60;;;;;;;;;;5056251;28;20053;-41
2022/09/28 10:17:14;;;;;;;3.83;0.52;;;;;;;;;;5056167;28;20098;-42
2022/09/28 10:19:42;;;;;;;1.73;0.50;;;;;;;;;;5056027;28;20475;-42
2022/09/28 10:22:15;;;;;;;2.67;0.40;;;17.50;99.90;;;;;;5055760;28;20564;-42
2022/09/28 10:24:44;;;;;;;3.70;0.47;;;17.30;1.00;;;;;;5055478;28;20049;-42
2022/09/28 10:27:14;;;;;;;2.72;0.32;;;;;;;;;;5055978;28;20045;-42
2022/09/28 10:30:13;;;;;;;2.92;0.40;;;18.10;99.90;;;;;;5056145;28;20414;-41
2022/09/28 10:32:47;;;;;;;2.85;0.30;;;18.20;99.90;;;;;;5056235;28;20128;-41
2022/09/28 10:35:40;;;;;;;4.03;0.30;;;18.30;1.00;;;;;;5056193;28;20131;-41
2022/09/28 10:38:27;;;;;;;2.72;0.47;;;18.70;99.90;;;;;;5055607;28;20120;-41
2022/09/28 10:40:54;;;;;;;1.27;0.40;;;19.50;11.10;;;;;;5055652;28;20056;-40
2022/09/28 10:43:33;;;;;;;2.15;0.30;;;18.60;99.90;;;;;;5054480;28;20052;-40
2022/09/28 10:46:14;;;;;;;2.70;0.20;;;17.50;1.00;;;;;;5055648;28;20498;-40
2022/09/28 10:49:12;;;;;;;2.45;0.30;;;16.20;1.00;;;;;;5055877;28;20041;-40
2022/09/28 10:51:45;;;;;;;2.03;0.77;;;15.20;99.90;;;;;;5055629;28;20138;-38
2022/09/28 10:54:18;;;;;;;3.42;0.50;;;14.60;1.00;;;;;;5054860;28;20057;-38
2022/09/28 10:56:45;;;;;;;2.20;0.50;;;14.20;99.90;;;;;;5055389;28;20045;-38
2022/09/28 10:59:29;;;;;;;1.65;0.40;;;14.00;1.00;;;;;;5055315;28;20040;-38
2022/09/28 11:01:58;;;;;;;1.83;0.30;;;13.70;99.90;;;;;;5055538;28;20387;-38
2022/09/28 11:04:28;;;;;;;0.82;0.40;;;13.40;99.90;;;;;;5055233;28;20052;-39
2022/09/28 11:06:57;;;;;;;2.47;0.70;;;13.30;99.90;;;;;;5054980;28;20522;-38
2022/09/28 11:09:23;;;;;;;2.25;0.45;;;13.30;99.90;;;;;;5055476;28;20037;-38
2022/09/28 11:11:49;;;;;;;0.82;0.30;;;13.40;1.00;;;;;;5055104;28;20395;-38
2022/09/28 11:14:37;;;;;;;0.55;0.28;;;13.50;1.00;;;;;;5055048;28;20049;-38
2022/09/28 11:17:26;;;;;;;1.67;0.40;;;13.70;1.00;;;;;;5055297;28;20130;-39
2022/09/28 11:20:16;;;;;;;2.20;0.73;;;13.80;99.90;;;;;;5055375;28;20055;-39
2022/09/28 11:22:44;;;;;;;2.03;0.38;;;14.00;99.90;;;;;;5053477;28;20491;-39
2022/09/28 11:25:15;;;;;;;2.67;0.40;;;14.00;99.90;;;;;;5055683;28;20048;-39
2022/09/28 11:27:50;;;;;;;1.15;0.30;;;14.00;99.90;;;;;;5053867;28;20057;-38
2022/09/28 11:30:33;;;;;;;11.45;0.60;;;14.00;1.00;;;;;;5054717;28;20051;-38
2022/09/28 11:33:27;;;;;;;2.50;0.20;;;13.90;99.90;;;;;;5055336;28;20436;-37
2022/09/28 11:36:11;;;;;;;1.20;0.43;;;13.70;99.90;;;;;;5052333;28;20549;-35
2022/09/28 11:38:40;;;;;;;1.40;0.40;;;13.20;99.90;;;;;;5054565;28;20049;-40
2022/09/28 11:41:24;;;;;;;3.42;0.22;;;12.90;99.90;;;;;;5054599;28;20490;-40
2022/09/28 11:44:12;;;;;;;0.50;0.10;;;12.80;1.80;;;;;;5053600;28;20049;-41
2022/09/28 11:47:02;;;;;;;2.25;0.40;;;12.60;1.00;;;;;;5055091;28;20055;-40
2022/09/28 11:49:42;;;;;;;3.15;1.88;;;12.60;99.90;;;;;;5054481;28;20049;-40
2022/09/28 11:52:36;;;;;;;5.18;2.05;;;12.50;1.00;;;;;;5054362;28;20064;-41
2022/09/28 11:55:15;;;;;;;2.15;0.57;;;12.50;1.00;;;;;;5054701;28;20084;-41
2022/09/28 11:57:45;;;;;;;4.78;0.70;;;12.50;52.10;;;;;;5054906;28;20064;-41
2022/09/28 12:00:13;;;;;;;0.77;0.30;;;12.40;99.90;;;;;;5052961;28;20479;-41
2022/09/28 12:02:48;;;;;;;1.98;0.35;;;12.40;99.90;;;;;;5053249;28;20051;-41
2022/09/28 12:05:23;;;;;;;1.35;0.50;;;12.30;99.90;;;;;;5054258;28;20049;-41
2022/09/28 12:08:00;;;;;;;3.53;0.45;;;12.10;99.90;;;;;;5054151;28;20041;-40
2022/09/28 12:10:36;;;;;;;2.92;0.30;;;12.10;99.90;;;;;;5054112;28;20131;-40
2022/09/28 12:13:15;;;;;;;1.08;0.22;;;12.00;99.90;;;;;;5053630;28;20079;-40
2022/09/28 12:16:02;;;;;;;0.98;0.20;;;12.00;99.90;;;;;;5054019;28;20149;-41
2022/09/28 12:18:50;;;;;;;1.20;0.30;;;12.00;99.90;;;;;;5053892;28;20044;-40
2022/09/28 12:21:51;;;;;;;0.63;0.30;;;11.90;99.90;;;;;;5053904;28;20045;-40
2022/09/28 12:24:25;;;;;;;1.58;0.30;;;11.90;99.90;;;;;;5053851;28;20040;-40
2022/09/28 12:27:14;;;;;;;1.52;0.40;;;12.00;99.90;;;;;;5052851;28;20140;-40
2022/09/28 12:29:50;;;;;;;0.98;0.10;;;11.90;99.90;;;;;;5054354;28;20048;-40
2022/09/28 12:32:57;;;;;;;1.08;0.10;;;12.00;99.90;;;;;;5053589;28;20055;-40
2022/09/28 12:35:46;;;;;;;2.05;0.15;;;11.90;99.90;;;;;;5053968;28;20471;-40
2022/09/28 12:38:29;;;;;;;7.38;4.55;;;12.00;99.90;;;;;;5053458;28;20055;-39
2022/09/28 12:41:11;;;;;;;1.27;0.60;;;12.00;99.90;;;;;;5054019;28;20107;-38
2022/09/28 12:44:10;;;;;;;1.53;0.40;;;12.20;99.90;;;;;;5054318;28;20056;-39
2022/09/28 12:46:47;;;;;;;0.65;0.20;;;12.40;99.90;;;;;;5054163;28;20392;-39
2022/09/28 12:49:38;;;;;;;1.40;0.10;;;13.00;99.90;;;;;;5053591;28;20095;-40
2022/09/28 12:52:14;;;;;;;0.70;0.10;;;;;;;;;;5053487;28;20049;-41
2022/09/28 12:54:57;;;;;;;0.73;0.10;;;16.40;99.90;;;;;;5052547;28;20080;-41
2022/09/28 12:57:26;;;;;;;0.47;0.00;;;16.40;99.90;;;;;;5054078;28;20052;-40
2022/09/28 13:00:08;;;;;;;1.42;0.20;;;17.10;99.90;;;;;;5053367;28;20132;-39
2022/09/28 13:02:51;;;;;;;2.28;0.10;;;17.60;99.90;;;;;;5053223;28;20482;-40
2022/09/28 13:06:04;;;;;;;1.33;0.15;;;18.30;99.90;;;;;;5053413;28;20041;-40
2022/09/28 13:09:00;;;;;;;1.50;0.00;;;18.50;1.00;;;;;;5031705;28;20373;-40
2022/09/28 13:11:37;;;;;;;0.55;0.20;;;18.20;91.70;;;;;;5054000;28;20391;-37
2022/09/28 13:14:27;;;;;;;2.55;0.45;;;17.10;99.90;;;;;;5054142;28;20049;-38
2022/09/28 13:17:20;;;;;;;1.08;0.20;;;16.50;99.90;;;;;;5053360;28;20045;-37
2022/09/28 13:20:03;;;;;;;0.95;0.10;;;15.80;1.00;;;;;;5035452;28;20044;-37